Time;durP1;ratioP1;P1;durP2;ratioP2;P2;SDS_P1;SDS_P2;PMS_P1;PMS_P2;Temp;Humidity;BMP_temperature;BMP_pressure;BME280_temperature;BME280_humidity;BME280_pressure;Samples;Min_cycle;Max_cycle;Signal;HPM_P1;HPM_P2
2022/09/28 00:00:53;;;;;;;2.67;2.13;;;;;;;13.62;62.11;98213.00;4224663;27;20702;-36
2022/09/28 00:02:56;;;;;;;4.23;2.90;;;;;;;15.54;59.01;98019.13;4226851;27;20701;-36
2022/09/28 00:04:58;;;;;;;2.80;2.60;;;;;;;13.79;61.96;98166.03;4225862;27;20317;-33
2022/09/28 00:06:59;;;;;;;2.50;2.30;;;;;;;13.48;63.15;98190.91;4224505;27;20249;-33
2022/09/28 00:09:02;;;;;;;3.73;2.80;;;;;;;13.62;63.71;98144.41;4225397;27;20257;-34
2022/09/28 00:11:06;;;;;;;4.10;2.80;;;;;;;14.14;62.59;98050.59;4227113;27;20678;-31
2022/09/28 00:13:08;;;;;;;5.83;2.80;;;;;;;14.72;60.45;98059.94;4223561;27;21013;-33
2022/09/28 00:15:10;;;;;;;3.13;2.83;;;;;;;14.93;60.11;98053.28;4225282;27;20262;-34
2022/09/28 00:17:12;;;;;;;4.83;2.70;;;;;;;14.91;59.82;98074.09;4224155;27;20254;-34
2022/09/28 00:19:13;;;;;;;2.93;2.63;;;;;;;15.09;59.54;98059.03;4226354;27;20317;-33
2022/09/28 00:21:18;;;;;;;4.60;2.93;;;;;;;14.60;60.96;98080.47;4221674;27;20737;-34
2022/09/28 00:23:20;;;;;;;4.13;2.07;;;;;;;13.14;63.23;98184.97;4223769;27;20237;-36
2022/09/28 00:25:23;;;;;;;4.33;2.60;;;;;;;14.95;59.81;98063.75;4226057;27;20250;-35
2022/09/28 00:27:25;;;;;;;2.60;2.40;;;;;;;13.29;64.36;98144.63;4224503;27;20223;-33
2022/09/28 00:29:28;;;;;;;6.50;2.50;;;;;;;13.96;63.06;98091.50;4225593;27;20261;-32
2022/09/28 00:31:32;;;;;;;3.00;2.40;;;;;;;14.53;61.35;98032.44;4222836;28;20253;-33
2022/09/28 00:33:34;;;;;;;3.57;2.60;;;;;;;15.50;59.58;97942.16;4225312;27;20230;-34
2022/09/28 00:35:35;;;;;;;2.23;2.00;;;;;;;14.34;61.81;98066.38;4226242;27;20312;-33
2022/09/28 00:37:38;;;;;;;5.37;2.57;;;;;;;14.54;61.99;98020.66;4221901;27;20259;-32
2022/09/28 00:39:43;;;;;;;2.13;1.97;;;;;;;14.77;60.88;98016.50;4219400;27;20257;-32
2022/09/28 00:41:45;;;;;;;4.97;2.57;;;;;;;14.94;60.07;98006.75;4225547;27;20253;-33
2022/09/28 00:43:47;;;;;;;3.33;2.43;;;;;;;15.20;58.93;98007.34;4223871;27;20238;-33
2022/09/28 00:45:57;;;;;;;3.57;2.50;;;;;;;14.66;60.16;98064.34;4226465;27;20326;-34
2022/09/28 00:47:59;;;;;;;2.40;2.20;;;;;;;14.48;60.14;98088.44;4223762;27;20759;-32
2022/09/28 00:50:18;;;;;;;3.23;2.50;;;;;;;16.54;56.85;97891.09;4224669;27;20529;-33
2022/09/28 00:52:47;;;;;;;4.00;2.40;;;;;;;15.14;60.02;98027.03;4220001;27;20256;-32
2022/09/28 00:54:52;;;;;;;2.67;2.20;;;;;;;14.70;60.02;98086.91;4231700;27;20309;-37
2022/09/28 00:56:55;;;;;;;3.83;2.20;;;;;;;14.54;60.67;98092.88;4223537;27;20235;-33
2022/09/28 00:58:58;;;;;;;3.77;2.33;;;;;;;14.62;61.16;98063.16;4224565;27;20257;-34
2022/09/28 01:01:01;;;;;;;2.50;2.30;;;;;;;14.94;60.73;98033.50;4221466;27;20227;-32
2022/09/28 01:03:03;;;;;;;7.07;3.00;;;;;;;15.43;59.01;98014.59;4224556;27;20275;-34
2022/09/28 01:05:06;;;;;;;4.47;3.00;;;;;;;15.15;61.22;97996.53;4226262;27;20226;-33
2022/09/28 01:07:08;;;;;;;5.37;3.03;;;;;;;16.72;56.55;97908.00;4223576;27;20318;-33
2022/09/28 01:09:12;;;;;;;3.83;3.00;;;;;;;16.93;56.33;97922.56;4223023;27;20410;-34
2022/09/28 01:11:14;;;;;;;5.40;3.13;;;;;;;16.86;55.18;97962.19;4225115;27;20236;-34
2022/09/28 01:13:17;;;;;;;5.93;3.27;;;;;;;15.54;59.12;98048.59;4223927;27;20325;-34
2022/09/28 01:15:20;;;;;;;5.27;2.77;;;;;;;14.75;60.98;98093.47;4224211;27;20321;-33
2022/09/28 01:17:38;;;;;;;7.40;3.17;;;;;;;15.45;60.21;98005.25;4224726;27;20230;-35
2022/09/28 01:19:43;;;;;;;6.40;3.40;;;;;;;14.29;61.32;98123.22;4222899;27;20714;-34
2022/09/28 01:21:52;;;;;;;9.00;3.43;;;;;;;15.38;60.02;98007.25;4224797;27;20225;-33
2022/09/28 01:24:03;;;;;;;7.20;2.90;;;;;;;14.09;63.68;98070.00;4222532;27;20229;-35
2022/09/28 01:26:38;;;;;;;6.17;3.20;;;;;;;16.01;59.00;97913.72;4223827;27;20741;-34
2022/09/28 01:28:43;;;;;;;8.70;4.20;;;;;;;15.92;58.53;97995.56;4224031;27;20251;-34
2022/09/28 01:30:59;;;;;;;4.37;3.17;;;;;;;14.43;61.56;98102.50;4222874;27;20807;-33
2022/09/28 01:33:06;;;;;;;8.30;3.13;;;;;;;15.49;59.34;98005.63;4225053;27;20421;-32
2022/09/28 01:35:16;;;;;;;8.23;3.73;;;;;;;14.39;61.83;98087.91;4223703;27;20252;-35
2022/09/28 01:37:20;;;;;;;8.03;3.50;;;;;;;15.07;61.02;98017.25;4221556;27;20228;-34
2022/09/28 01:39:33;;;;;;;7.63;3.20;;;;;;;14.85;62.17;98016.16;4223460;27;20726;-33
2022/09/28 01:41:39;;;;;;;6.50;3.10;;;;;;;15.36;60.94;97973.72;4220111;27;20272;-33
2022/09/28 01:43:50;;;;;;;7.10;3.53;;;;;;;16.04;58.70;97945.41;4223550;27;20226;-32
2022/09/28 01:45:54;;;;;;;8.23;3.03;;;;;;;14.54;61.88;98079.50;4222555;27;20253;-33
2022/09/28 01:48:02;;;;;;;5.47;3.07;;;;;;;14.00;62.41;98105.22;4223336;27;20230;-33
2022/09/28 01:50:14;;;;;;;7.10;3.80;;;;;;;16.77;57.60;97883.09;4224404;27;26322;-36
2022/09/28 01:52:23;;;;;;;6.10;3.67;;;;;;;16.31;57.69;97961.72;4222863;27;20321;-34
2022/09/28 01:54:35;;;;;;;5.07;3.13;;;;;;;16.55;56.99;97967.00;4219987;27;20294;-36
2022/09/28 01:56:46;;;;;;;8.07;3.37;;;;;;;16.89;55.56;97949.06;4218461;27;20269;-32
2022/09/28 01:58:59;;;;;;;4.63;2.70;;;;;;;17.48;54.27;97923.63;4221650;27;20327;-33
2022/09/28 02:01:11;;;;;;;5.00;2.53;;;;;;;17.91;53.52;97895.09;4217208;27;20257;-32
2022/09/28 02:03:24;;;;;;;3.80;2.27;;;;;;;17.05;54.62;97993.06;4223082;27;20230;-32
2022/09/28 02:05:32;;;;;;;3.97;2.10;;;;;;;16.62;55.30;98042.00;4224352;27;21105;-37
2022/09/28 02:07:42;;;;;;;2.47;2.03;;;;;;;17.58;53.78;97942.56;4223517;27;20317;-33
2022/09/28 02:09:55;;;;;;;2.23;2.13;;;;;;;16.99;54.61;98003.97;4220143;27;20245;-32
2022/09/28 02:12:04;;;;;;;2.40;2.20;;;;;;;16.95;54.52;98013.59;4222507;27;20252;-32
2022/09/28 02:14:14;;;;;;;2.80;2.03;;;;;;;17.31;53.93;97985.44;4222805;27;20249;-33
2022/09/28 02:16:38;;;;;;;2.23;1.80;;;;;;;16.71;54.63;98051.28;4224408;27;20669;-34
2022/09/28 02:18:40;;;;;;;1.87;1.70;;;;;;;16.27;55.48;98085.84;4220163;27;20230;-32
2022/09/28 02:20:51;;;;;;;2.10;1.90;;;;;;;16.58;55.22;98056.94;4222692;28;20250;-32
2022/09/28 02:22:55;;;;;;;5.17;1.80;;;;;;;17.18;54.23;97983.09;4222389;27;20254;-32
2022/09/28 02:25:09;;;;;;;2.83;2.20;;;;;;;17.83;52.47;97943.94;4222984;27;20309;-33
2022/09/28 02:27:23;;;;;;;2.97;1.87;;;;;;;17.72;53.06;97956.44;4221312;27;20248;-37
2022/09/28 02:29:25;;;;;;;2.37;1.90;;;;;;;17.36;53.43;97988.22;4223492;27;20261;-32
2022/09/28 02:31:27;;;;;;;3.87;2.37;;;;;;;17.82;51.89;97958.47;4218348;27;20325;-35
2022/09/28 02:33:42;;;;;;;3.73;2.10;;;;;;;16.96;54.48;98029.47;4217214;27;20235;-32
2022/09/28 02:35:44;;;;;;;2.93;2.00;;;;;;;17.43;53.01;97982.66;4218964;27;20653;-34
2022/09/28 02:37:48;;;;;;;3.60;2.40;;;;;;;16.74;54.71;98056.19;4220859;27;20259;-34
2022/09/28 02:39:50;;;;;;;3.40;2.10;;;;;;;16.98;54.28;98016.59;4224468;27;20329;-34
2022/09/28 02:41:54;;;;;;;2.30;2.10;;;;;;;17.37;52.95;97989.03;4219249;27;20742;-36
2022/09/28 02:44:14;;;;;;;2.10;1.90;;;;;;;17.27;53.17;97995.81;4221283;27;20320;-34
2022/09/28 02:46:31;;;;;;;3.60;2.07;;;;;;;17.21;53.18;98006.75;4220650;27;20685;-32
2022/09/28 02:49:00;;;;;;;2.17;2.03;;;;;;;16.35;54.81;98088.97;4219327;27;20252;-34
2022/09/28 02:51:43;;;;;;;3.77;2.27;;;;;;;16.62;54.36;98045.50;4219583;27;20750;-33
2022/09/28 02:54:10;;;;;;;3.63;2.10;;;;;;;16.61;54.27;98043.06;4217298;27;20230;-34
2022/09/28 02:56:51;;;;;;;4.13;2.30;;;;;;;16.45;55.42;98040.06;4221016;27;20577;-33
2022/09/28 02:59:22;;;;;;;4.87;2.40;;;;;;;17.05;53.94;97974.28;4218309;27;20226;-35
2022/09/28 03:01:29;;;;;;;2.83;2.43;;;;;;;17.37;52.91;97962.97;4222500;27;20272;-34
2022/09/28 03:03:31;;;;;;;5.57;2.30;;;;;;;16.51;53.85;98060.59;4222511;27;20395;-32
2022/09/28 03:05:54;;;;;;;3.07;2.30;;;;;;;16.25;55.13;98083.38;4222460;27;20684;-34
2022/09/28 03:07:59;;;;;;;2.80;2.20;;;;;;;16.49;54.58;98056.53;4217785;27;20245;-33
2022/09/28 03:10:14;;;;;;;4.00;2.40;;;;;;;16.83;54.18;98022.50;4222203;28;20272;-34
2022/09/28 03:12:19;;;;;;;6.40;2.40;;;;;;;17.15;53.74;97979.00;4221145;27;20254;-32
2022/09/28 03:14:21;;;;;;;5.83;2.37;;;;;;;16.65;54.86;98036.94;4223201;27;20242;-34
2022/09/28 03:16:23;;;;;;;3.67;2.33;;;;;;;17.42;52.77;97957.66;4221730;27;20260;-31
2022/09/28 03:18:25;;;;;;;2.50;2.20;;;;;;;17.04;53.13;98001.38;4223179;27;20226;-34
2022/09/28 03:20:28;;;;;;;4.03;2.57;;;;;;;16.80;54.18;98032.94;4221148;27;20319;-33
2022/09/28 03:22:30;;;;;;;3.37;2.27;;;;;;;17.06;53.39;98005.47;4220928;27;20249;-32
2022/09/28 03:24:31;;;;;;;3.77;2.17;;;;;;;16.80;54.31;98017.63;4221377;27;20261;-33
2022/09/28 03:26:33;;;;;;;3.50;2.10;;;;;;;16.81;54.22;98021.94;4222673;27;20232;-36
2022/09/28 03:28:35;;;;;;;4.03;2.40;;;;;;;16.90;53.37;98017.78;4221955;27;20257;-31
2022/09/28 03:30:38;;;;;;;5.70;2.70;;;;;;;17.36;52.77;97987.38;4221889;27;20325;-34
2022/09/28 03:32:40;;;;;;;2.80;2.40;;;;;;;17.75;52.27;97941.69;4223182;27;20657;-34
2022/09/28 03:34:41;;;;;;;5.17;2.60;;;;;;;17.77;51.88;97961.09;4222238;27;20691;-32
2022/09/28 03:36:43;;;;;;;3.60;2.40;;;;;;;18.14;51.05;97937.06;4219233;27;20260;-34
2022/09/28 03:38:45;;;;;;;3.67;2.10;;;;;;;18.12;51.31;97947.28;4221801;27;20305;-35
2022/09/28 03:40:57;;;;;;;5.00;2.37;;;;;;;17.52;51.65;98016.13;4222154;27;20655;-33
2022/09/28 03:42:59;;;;;;;3.70;2.27;;;;;;;17.40;52.48;98016.22;4221013;27;20232;-36
2022/09/28 03:45:01;;;;;;;5.90;2.90;;;;;;;17.45;52.05;98010.09;4221605;27;20250;-33
2022/09/28 03:47:03;;;;;;;5.27;2.47;;;;;;;17.71;51.67;97984.38;4222215;27;20256;-33
2022/09/28 03:49:05;;;;;;;5.27;2.37;;;;;;;17.49;51.74;98011.22;4220193;27;20254;-33
2022/09/28 03:51:08;;;;;;;3.40;2.10;;;;;;;17.52;52.84;97997.31;4219908;27;20272;-33
2022/09/28 03:53:10;;;;;;;4.23;2.10;;;;;;;18.24;50.94;97931.00;4218796;27;20301;-35
2022/09/28 03:55:12;;;;;;;5.03;2.30;;;;;;;18.41;50.39;97933.56;4222586;27;20604;-34
2022/09/28 03:57:14;;;;;;;3.13;2.50;;;;;;;17.61;52.02;98020.00;4219253;27;20304;-37
2022/09/28 03:59:15;;;;;;;5.77;2.20;;;;;;;18.20;50.92;97948.69;4222177;27;20320;-32
2022/09/28 04:01:17;;;;;;;5.23;2.60;;;;;;;17.61;51.27;98021.88;4219567;27;20245;-33
2022/09/28 04:03:19;;;;;;;3.90;2.47;;;;;;;17.27;52.36;98054.91;4216234;28;20226;-34
2022/09/28 04:05:21;;;;;;;2.10;2.00;;;;;;;17.34;52.24;98033.31;4221626;27;20253;-33
2022/09/28 04:07:22;;;;;;;3.10;2.57;;;;;;;18.26;50.42;97958.44;4224288;27;20260;-31
2022/09/28 04:09:29;;;;;;;4.03;2.53;;;;;;;18.27;51.09;97957.34;4223296;27;20226;-32
2022/09/28 04:11:31;;;;;;;6.60;2.90;;;;;;;17.77;51.25;98009.47;4226882;27;20274;-35
2022/09/28 04:13:52;;;;;;;3.40;3.10;;;;;;;17.75;51.54;98022.31;4224224;27;20776;-36
2022/09/28 04:15:57;;;;;;;4.77;3.00;;;;;;;18.58;49.83;97945.03;4224241;28;20253;-34
2022/09/28 04:17:58;;;;;;;3.87;3.10;;;;;;;18.19;50.58;97990.13;4224635;27;20229;-32
2022/09/28 04:20:02;;;;;;;4.47;3.00;;;;;;;18.11;50.34;97994.06;4225769;27;20261;-33
2022/09/28 04:22:03;;;;;;;3.60;2.97;;;;;;;17.90;50.89;98002.91;4224138;27;20253;-33
2022/09/28 04:24:05;;;;;;;5.60;3.20;;;;;;;17.99;51.03;98004.09;4223655;27;20251;-32
2022/09/28 04:26:15;;;;;;;5.53;2.70;;;;;;;17.80;50.90;98022.38;4225896;27;20237;-34
2022/09/28 04:30:37;;;;;;;4.90;2.67;;;;;;;18.38;50.60;97951.03;4219757;27;20266;-35
2022/09/28 04:32:39;;;;;;;4.43;3.07;;;;;;;18.37;50.48;97965.56;4222137;27;20257;-35
2022/09/28 04:34:40;;;;;;;4.07;3.10;;;;;;;18.63;50.20;97930.81;4221082;28;20787;-33
2022/09/28 04:36:46;;;;;;;6.93;3.00;;;;;;;18.56;49.47;97949.88;4223551;28;20329;-38
2022/09/28 04:38:47;;;;;;;7.73;3.40;;;;;;;18.57;49.61;97964.13;4223942;27;20332;-37
2022/09/28 04:40:54;;;;;;;4.03;2.70;;;;;;;18.15;50.06;98015.88;4225020;27;20260;-33
2022/09/28 04:42:56;;;;;;;6.50;3.33;;;;;;;17.61;51.36;98062.19;4225032;27;20783;-37
2022/09/28 04:44:59;;;;;;;7.40;3.40;;;;;;;18.06;51.29;97999.38;4223463;27;20314;-34
2022/09/28 04:47:01;;;;;;;5.43;3.30;;;;;;;18.72;49.43;97948.09;4223866;28;20261;-34
2022/09/28 04:49:05;;;;;;;5.37;3.40;;;;;;;17.78;51.11;98043.34;4222793;27;20634;-34
2022/09/28 04:51:07;;;;;;;4.77;3.60;;;;;;;18.17;50.75;98001.13;4218226;27;20264;-32
2022/09/28 04:53:09;;;;;;;7.37;4.03;;;;;;;18.13;50.92;98000.00;4223469;27;20253;-32
2022/09/28 04:55:12;;;;;;;6.47;3.73;;;;;;;18.46;50.50;97973.16;4221564;27;20230;-34
2022/09/28 04:57:14;;;;;;;5.67;4.17;;;;;;;18.32;49.72;97999.66;4222493;27;20237;-35
2022/09/28 04:59:15;;;;;;;6.07;3.97;;;;;;;18.45;50.05;97983.13;4224092;27;20253;-33
2022/09/28 05:01:19;;;;;;;5.03;3.80;;;;;;;17.82;51.10;98042.59;4222265;27;20226;-33
2022/09/28 05:03:21;;;;;;;5.03;3.67;;;;;;;17.79;51.37;98042.28;4224187;27;20281;-33
2022/09/28 05:05:23;;;;;;;6.77;3.83;;;;;;;18.35;50.50;97983.81;4221044;27;20273;-34
2022/09/28 05:07:25;;;;;;;6.53;3.70;;;;;;;18.18;50.47;98005.44;4223857;27;20230;-32
2022/09/28 05:09:27;;;;;;;6.17;3.30;;;;;;;17.90;51.50;98037.84;4222378;27;20316;-37
2022/09/28 05:11:29;;;;;;;4.47;3.17;;;;;;;17.83;51.27;98051.47;4221812;27;20261;-35
2022/09/28 05:13:40;;;;;;;4.40;3.13;;;;;;;18.07;51.37;98022.53;4225624;27;20652;-35
2022/09/28 05:15:42;;;;;;;4.50;3.50;;;;;;;17.89;51.11;98033.56;4220657;27;20613;-35
2022/09/28 05:17:43;;;;;;;7.57;3.40;;;;;;;18.70;49.97;97955.63;4222497;27;20257;-35
2022/09/28 05:19:45;;;;;;;5.83;3.67;;;;;;;18.38;49.89;98012.91;4223139;27;20818;-35
2022/09/28 05:21:47;;;;;;;6.10;4.20;;;;;;;18.77;49.61;97967.00;4219892;27;20270;-33
2022/09/28 05:23:50;;;;;;;5.10;3.93;;;;;;;18.48;50.05;98006.84;4225030;27;20695;-37
2022/09/28 05:25:52;;;;;;;6.37;3.60;;;;;;;18.46;49.91;98010.81;4223164;27;20284;-33
2022/09/28 05:27:57;;;;;;;7.10;3.83;;;;;;;18.62;50.14;97996.47;4224330;27;20524;-32
2022/09/28 05:29:58;;;;;;;13.63;4.10;;;;;;;18.91;49.03;97988.13;4224208;27;20313;-35
2022/09/28 05:32:00;;;;;;;7.23;3.40;;;;;;;18.86;49.49;97994.28;4217692;27;20257;-33
2022/09/28 05:34:02;;;;;;;5.40;2.83;;;;;;;19.00;48.91;97992.00;4223536;27;20290;-35
2022/09/28 05:36:07;;;;;;;2.93;2.50;;;;;;;18.68;49.37;98035.03;4222990;27;22206;-34
2022/09/28 05:38:08;;;;;;;4.30;3.13;;;;;;;18.99;49.29;98003.03;4220625;27;20261;-36
2022/09/28 05:40:10;;;;;;;5.57;2.90;;;;;;;18.51;49.87;98051.25;4224394;27;20321;-36
2022/09/28 05:42:12;;;;;;;4.93;2.63;;;;;;;18.57;49.96;98026.03;4223919;27;20234;-32
2022/09/28 05:44:14;;;;;;;7.57;4.00;;;;;;;18.77;49.39;98009.25;4220085;27;20253;-33
2022/09/28 05:46:17;;;;;;;7.37;4.60;;;;;;;18.68;49.52;98019.69;4223317;27;20267;-35
2022/09/28 05:48:19;;;;;;;5.33;3.87;;;;;;;18.86;49.54;98005.06;4222368;27;20929;-32
2022/09/28 05:50:20;;;;;;;6.80;4.13;;;;;;;18.32;50.42;98054.28;4223381;27;20261;-32
2022/09/28 05:52:22;;;;;;;5.80;3.97;;;;;;;18.56;49.90;98033.28;4222329;27;21018;-36
2022/09/28 05:54:23;;;;;;;5.50;3.90;;;;;;;18.65;49.98;98022.88;4223114;27;20257;-35
2022/09/28 05:56:25;;;;;;;6.03;3.30;;;;;;;18.45;50.08;98038.81;4222242;27;20901;-36
2022/09/28 05:58:27;;;;;;;3.83;2.93;;;;;;;18.44;50.17;98039.88;4221885;27;20233;-33
2022/09/28 06:00:30;;;;;;;3.53;3.20;;;;;;;18.52;50.23;98028.66;4222138;27;20313;-32
2022/09/28 06:02:32;;;;;;;5.50;3.30;;;;;;;17.67;51.41;98109.59;4223848;27;20280;-34
2022/09/28 06:04:34;;;;;;;6.43;3.50;;;;;;;18.39;50.02;98030.69;4217551;27;20225;-32
2022/09/28 06:06:37;;;;;;;5.23;3.13;;;;;;;19.07;49.37;97965.66;4219232;27;20226;-36
2022/09/28 06:08:41;;;;;;;6.07;3.00;;;;;;;18.33;50.22;98053.22;4221954;27;20665;-32
2022/09/28 06:10:43;;;;;;;4.73;3.37;;;;;;;17.95;51.54;98080.94;4220849;27;20266;-34
2022/09/28 06:12:46;;;;;;;6.37;3.30;;;;;;;18.49;50.39;98019.22;4224695;27;20314;-33
2022/09/28 06:14:48;;;;;;;7.77;3.40;;;;;;;18.53;50.04;98011.47;4224150;27;20261;-34
2022/09/28 06:16:50;;;;;;;7.70;3.60;;;;;;;17.56;51.36;98116.66;4222931;27;20245;-34
2022/09/28 06:18:51;;;;;;;6.87;3.10;;;;;;;17.95;51.58;98054.88;4213875;27;20230;-33
2022/09/28 06:20:53;;;;;;;5.07;3.83;;;;;;;18.85;49.35;97973.03;4211997;27;20828;-33
2022/09/28 06:22:55;;;;;;;6.53;3.27;;;;;;;18.67;50.14;98009.97;4213789;27;20300;-35
2022/09/28 06:24:56;;;;;;;5.87;2.90;;;;;;;18.50;50.01;98028.91;4213465;28;20637;-35
2022/09/28 06:26:58;;;;;;;9.97;3.10;;;;;;;18.52;50.23;98034.03;4213203;28;20252;-32
2022/09/28 06:29:00;;;;;;;8.20;4.00;;;;;;;18.60;49.73;98030.91;4216066;27;20313;-35
2022/09/28 06:31:01;;;;;;;6.63;3.30;;;;;;;18.80;49.45;98013.34;4217059;27;20280;-33
2022/09/28 06:33:05;;;;;;;7.50;3.60;;;;;;;18.67;49.70;98034.19;4216140;27;20246;-34
2022/09/28 06:35:08;;;;;;;5.00;3.47;;;;;;;19.19;48.57;97986.22;4215157;27;20227;-34
2022/09/28 06:37:10;;;;;;;6.23;3.50;;;;;;;18.24;49.90;98103.16;4214839;28;20222;-37
2022/09/28 06:39:12;;;;;;;10.10;3.67;;;;;;;18.55;49.53;98065.84;4220993;27;20317;-35
2022/09/28 06:41:14;;;;;;;6.37;3.90;;;;;;;17.98;50.14;98137.72;4209104;28;20269;-33
2022/09/28 06:43:16;;;;;;;6.90;4.30;;;;;;;18.38;50.24;98080.19;4220732;27;20225;-35
2022/09/28 06:45:20;;;;;;;10.33;4.67;;;;;;;18.31;50.10;98073.38;4223108;27;20268;-32
2022/09/28 06:47:22;;;;;;;10.23;4.03;;;;;;;18.40;49.93;98072.66;4221337;27;20230;-32
2022/09/28 06:49:26;;;;;;;8.73;3.43;;;;;;;18.47;49.75;98066.28;4219263;27;20646;-33
2022/09/28 06:51:28;;;;;;;6.23;3.37;;;;;;;17.76;51.33;98120.75;4222523;27;20226;-37
2022/09/28 06:53:31;;;;;;;9.47;4.30;;;;;;;17.82;51.08;98103.63;4218891;27;20317;-33
2022/09/28 06:55:32;;;;;;;8.07;3.73;;;;;;;17.63;51.11;98121.88;4223037;27;20240;-32
2022/09/28 06:57:34;;;;;;;8.27;4.10;;;;;;;17.94;51.23;98085.50;4220322;27;20264;-33
2022/09/28 06:59:36;;;;;;;6.50;3.50;;;;;;;17.24;52.23;98140.56;4221805;27;20269;-35
2022/09/28 07:01:37;;;;;;;7.37;3.30;;;;;;;17.29;51.58;98141.50;4221692;27;20325;-34
2022/09/28 07:03:39;;;;;;;5.47;3.20;;;;;;;17.58;51.79;98102.97;4220524;27;20241;-33
2022/09/28 07:05:44;;;;;;;6.73;3.23;;;;;;;17.91;50.93;98071.75;4222612;27;20272;-35
2022/09/28 07:07:46;;;;;;;8.63;3.90;;;;;;;18.07;50.83;98057.50;4216882;27;20308;-32
2022/09/28 07:09:52;;;;;;;4.77;3.50;;;;;;;17.31;52.41;98141.22;4220123;27;20227;-33
2022/09/28 07:11:58;;;;;;;8.80;3.53;;;;;;;17.31;52.39;98116.25;4222240;28;20375;-33
2022/09/28 07:13:59;;;;;;;6.10;3.60;;;;;;;17.41;51.65;98125.31;4222449;27;20257;-33
2022/09/28 07:16:01;;;;;;;6.27;3.60;;;;;;;18.15;50.90;98040.88;4222246;27;20245;-33
2022/09/28 07:18:04;;;;;;;6.50;4.10;;;;;;;18.45;49.91;98034.25;4219989;27;20261;-35
2022/09/28 07:20:06;;;;;;;14.47;7.93;;;;;;;18.30;50.64;98072.53;4222206;27;20260;-34
2022/09/28 07:22:19;;;;;;;10.80;5.37;;;;;;;18.02;51.49;98090.47;4221947;27;20290;-33
2022/09/28 07:24:34;;;;;;;8.50;3.73;;;;;;;17.64;51.49;98145.81;4218610;27;20283;-35
2022/09/28 07:26:36;;;;;;;7.40;4.33;;;;;;;18.65;50.43;98032.84;4220917;27;20695;-34
2022/09/28 07:28:40;;;;;;;9.10;4.60;;;;;;;18.53;50.23;98067.97;4219547;27;20253;-35
2022/09/28 07:30:43;;;;;;;6.73;4.30;;;;;;;18.43;50.58;98084.00;4220566;27;20288;-36
2022/09/28 07:32:45;;;;;;;9.13;4.30;;;;;;;18.19;50.66;98109.28;4221747;27;20218;-35
2022/09/28 07:34:47;;;;;;;8.77;4.70;;;;;;;19.03;49.92;98022.97;4219819;27;20954;-35
2022/09/28 07:36:50;;;;;;;13.10;5.83;;;;;;;19.21;49.13;98021.78;4221584;27;20230;-33
2022/09/28 07:38:52;;;;;;;8.87;3.83;;;;;;;18.49;50.74;98113.44;4221648;27;20248;-32
2022/09/28 07:41:10;;;;;;;6.07;4.00;;;;;;;18.15;50.58;98153.06;4223635;27;20276;-32
2022/09/28 07:43:12;;;;;;;7.77;4.63;;;;;;;18.25;51.02;98128.19;4216104;27;20852;-35
2022/09/28 07:45:14;;;;;;;9.77;4.80;;;;;;;18.68;50.30;98078.91;4214874;28;20268;-38
2022/09/28 07:47:17;;;;;;;10.50;4.60;;;;;;;18.98;49.49;98064.13;4222176;27;20645;-34
2022/09/28 07:49:21;;;;;;;7.67;4.83;;;;;;;18.40;50.43;98137.25;4221644;27;20874;-36
2022/09/28 07:51:23;;;;;;;8.40;4.10;;;;;;;18.58;50.08;98114.59;4223281;27;20275;-33
2022/09/28 07:53:24;;;;;;;9.60;4.53;;;;;;;18.77;49.43;98104.31;4221382;27;20261;-32
2022/09/28 07:55:26;;;;;;;10.47;4.20;;;;;;;18.89;49.38;98088.03;4225629;27;20718;-36
2022/09/28 07:57:28;;;;;;;7.73;4.30;;;;;;;18.70;49.89;98117.16;4221358;27;20249;-33
2022/09/28 07:59:30;;;;;;;6.03;4.27;;;;;;;18.85;49.97;98096.88;4224423;27;20265;-33
2022/09/28 08:01:32;;;;;;;9.40;4.80;;;;;;;18.36;50.04;98159.53;4225685;27;20222;-34
2022/09/28 08:03:34;;;;;;;7.73;4.90;;;;;;;19.05;49.46;98080.09;4225527;27;20241;-33
2022/09/28 08:05:36;;;;;;;8.73;4.30;;;;;;;19.01;49.33;98093.25;4221787;27;20254;-34
2022/09/28 08:07:38;;;;;;;9.97;5.00;;;;;;;19.22;49.16;98071.88;4222023;27;20260;-36
2022/09/28 08:09:39;;;;;;;11.27;4.97;;;;;;;18.54;49.88;98164.63;4225694;27;20229;-32
2022/09/28 08:11:42;;;;;;;10.07;4.87;;;;;;;18.80;49.61;98137.19;4226076;27;20271;-33
2022/09/28 08:13:45;;;;;;;9.53;4.60;;;;;;;18.14;50.93;98213.31;4222894;27;20222;-34
2022/09/28 08:15:50;;;;;;;8.07;4.73;;;;;;;17.96;50.75;98222.41;4225761;27;20226;-34
2022/09/28 08:17:51;;;;;;;5.73;4.43;;;;;;;18.80;49.87;98112.97;4223825;27;20801;-32
2022/09/28 08:22:14;;;;;;;8.77;4.40;;;;;;;18.34;50.69;98178.63;4223004;27;20240;-35
2022/09/28 08:24:16;;;;;;;8.07;4.40;;;;;;;18.66;50.13;98142.13;4222902;28;20264;-34
2022/09/28 08:26:18;;;;;;;10.03;5.00;;;;;;;18.75;49.44;98129.88;4222245;27;20234;-33
2022/09/28 08:28:22;;;;;;;10.47;4.47;;;;;;;18.39;50.29;98175.16;4225292;27;20874;-33
2022/09/28 08:30:25;;;;;;;6.03;3.80;;;;;;;17.90;50.80;98208.03;4220941;27;20864;-33
2022/09/28 08:32:28;;;;;;;6.30;3.77;;;;;;;18.06;50.39;98200.25;4222863;27;20257;-34
2022/09/28 08:34:30;;;;;;;11.10;7.93;;;;;;;17.98;50.07;98209.53;4220593;27;20680;-32
2022/09/28 08:36:33;;;;;;;7.53;4.53;;;;;;;17.85;50.00;98224.09;4219974;27;20248;-34
2022/09/28 08:38:34;;;;;;;6.27;4.10;;;;;;;18.44;48.71;98158.28;4223647;27;20742;-33
2022/09/28 08:41:05;;;;;;;8.13;3.67;;;;;;;18.06;50.12;98200.25;4223039;27;20317;-33
2022/09/28 08:43:23;;;;;;;6.90;3.20;;;;;;;18.06;50.29;98192.16;4223455;28;20284;-34
2022/09/28 08:45:27;;;;;;;6.23;3.83;;;;;;;19.16;47.71;98094.47;4222943;27;20233;-36
2022/09/28 08:50:27;;;;;;;6.43;4.03;;;;;;;18.34;49.63;98185.84;4223041;27;20250;-35
2022/09/28 08:52:37;;;;;;;5.47;3.27;;;;;;;18.06;49.23;98227.13;4223778;27;20249;-33
2022/09/28 08:54:54;;;;;;;4.67;3.43;;;;;;;17.95;49.74;98192.03;4222756;27;20222;-35
2022/09/28 08:57:09;;;;;;;5.97;2.90;;;;;;;18.63;49.07;98132.69;4220702;27;20839;-34
2022/09/28 08:59:16;;;;;;;5.93;3.30;;;;;;;18.84;47.96;98138.34;4222678;27;20253;-32
2022/09/28 09:01:19;;;;;;;6.47;3.30;;;;;;;18.56;48.51;98186.72;4222208;27;20321;-35
2022/09/28 09:03:40;;;;;;;8.67;4.20;;;;;;;19.05;47.94;98148.25;4223089;27;20230;-33
2022/09/28 09:06:01;;;;;;;8.27;3.67;;;;;;;18.62;48.54;98182.19;4221549;27;20246;-33
2022/09/28 09:08:12;;;;;;;6.27;3.00;;;;;;;17.71;49.41;98279.25;4220740;27;20328;-33
2022/09/28 09:10:27;;;;;;;6.73;3.53;;;;;;;18.42;48.70;98203.47;4221406;27;20264;-34
2022/09/28 09:12:52;;;;;;;8.37;3.27;;;;;;;17.57;49.92;98276.06;4218925;27;20225;-33
2022/09/28 09:15:17;;;;;;;8.00;3.63;;;;;;;18.16;49.24;98203.91;4185816;27;20321;-35
2022/09/28 09:17:57;;;;;;;4.90;2.77;;;;;;;18.68;48.53;98159.66;4222839;27;20237;-36
2022/09/28 09:20:14;;;;;;;7.20;3.27;;;;;;;18.43;48.02;98180.88;4221639;27;20316;-32
2022/09/28 09:22:38;;;;;;;5.63;3.47;;;;;;;18.49;48.00;98199.53;4219814;27;20233;-34
2022/09/28 09:24:58;;;;;;;4.30;2.93;;;;;;;17.96;49.69;98209.78;4222146;27;20494;-33
2022/09/28 09:27:12;;;;;;;5.60;2.77;;;;;;;18.54;48.19;98153.03;4219914;27;20309;-33
2022/09/28 09:29:45;;;;;;;5.97;3.43;;;;;;;18.36;49.23;98222.22;4222588;27;20308;-37
2022/09/28 09:32:05;;;;;;;9.67;3.87;;;;;;;18.85;48.42;98161.50;4219512;28;20300;-34
2022/09/28 09:34:14;;;;;;;6.63;3.60;;;;;;;18.32;48.55;98236.41;4224875;27;20259;-34
2022/09/28 09:36:26;;;;;;;8.03;3.57;;;;;;;18.84;48.57;98182.22;4219645;27;20316;-35
2022/09/28 09:38:34;;;;;;;7.13;3.40;;;;;;;18.31;48.91;98254.44;4222718;27;20757;-33
2022/09/28 09:40:49;;;;;;;6.73;4.33;;;;;;;18.02;49.26;98285.97;4221299;27;20651;-33
2022/09/28 09:43:19;;;;;;;6.67;3.80;;;;;;;18.48;49.33;98219.44;4223557;27;20272;-32
2022/09/28 09:45:41;;;;;;;4.97;3.50;;;;;;;18.60;48.97;98203.19;4196838;27;20317;-32
2022/09/28 09:47:49;;;;;;;8.53;4.13;;;;;;;18.73;49.05;98208.19;4219765;27;20250;-34
2022/09/28 09:50:12;;;;;;;7.33;3.53;;;;;;;18.56;48.91;98228.94;4222158;27;20680;-34
2022/09/28 09:52:26;;;;;;;9.00;3.70;;;;;;;18.91;48.46;98188.25;4221461;27;20679;-33
2022/09/28 09:54:35;;;;;;;8.80;3.87;;;;;;;18.74;48.29;98223.25;4221825;27;20771;-33
2022/09/28 09:56:58;;;;;;;5.67;3.97;;;;;;;18.08;50.11;98270.75;4220885;28;20228;-36
2022/09/28 09:59:26;;;;;;;7.30;3.70;;;;;;;19.14;48.16;98130.56;4233819;27;20241;-33
2022/09/28 10:01:34;;;;;;;8.83;4.30;;;;;;;18.12;49.61;98259.28;4215418;28;20560;-32
2022/09/28 10:03:41;;;;;;;9.77;4.10;;;;;;;18.58;49.10;98195.34;4221222;27;20226;-33